Time;durP1;ratioP1;P1;durP2;ratioP2;P2;SDS_P1;SDS_P2;PMS_P1;PMS_P2;Temp;Humidity;BMP_temperature;BMP_pressure;BME280_temperature;BME280_humidity;BME280_pressure;Samples;Min_cycle;Max_cycle;Signal;HPM_P1;HPM_P2
2023/07/21 00:00:56;;;;;;;;;;;22.10;61.00;;;;;;4158067;28;19937;-54
2023/07/21 00:03:39;;;;;;;;;;;22.10;61.00;;;;;;4172119;28;19932;-51
2023/07/21 00:06:24;;;;;;;;;;;22.10;61.10;;;;;;4161391;28;19932;-53
2023/07/21 00:09:09;;;;;;;;;;;22.10;61.10;;;;;;4182958;28;20341;-54
2023/07/21 00:11:53;;;;;;;;;;;22.00;61.00;;;;;;4164035;28;19952;-52
2023/07/21 00:14:38;;;;;;;;;;;22.00;61.10;;;;;;4176662;28;19935;-52
2023/07/21 00:17:21;;;;;;;;;;;22.00;61.10;;;;;;4154846;28;19971;-51
2023/07/21 00:20:08;;;;;;;;;;;22.00;61.10;;;;;;4144132;28;19994;-52
2023/07/21 00:22:49;;;;;;;;;;;22.00;61.20;;;;;;4153955;28;20025;-54
2023/07/21 00:25:31;;;;;;;;;;;22.00;61.20;;;;;;4150157;28;19936;-54
2023/07/21 00:28:13;;;;;;;;;;;22.00;61.20;;;;;;4134319;28;19935;-58
2023/07/21 00:30:54;;;;;;;;;;;22.00;61.30;;;;;;4134101;28;19936;-53
2023/07/21 00:33:38;;;;;;;;;;;22.00;61.40;;;;;;4126834;28;19932;-51
2023/07/21 00:36:20;;;;;;;;;;;22.00;61.40;;;;;;4144825;28;19981;-56
2023/07/21 00:39:05;;;;;;;;;;;22.00;61.40;;;;;;4165462;28;20385;-50
2023/07/21 00:41:50;;;;;;;;;;;21.90;61.30;;;;;;4165850;27;20461;-50
2023/07/21 00:44:36;;;;;;;;;;;21.90;61.30;;;;;;4159215;28;19932;-52
2023/07/21 00:47:19;;;;;;;;;;;21.90;61.30;;;;;;4151120;28;19933;-50
2023/07/21 00:50:03;;;;;;;;;;;21.90;61.30;;;;;;4149898;28;19936;-55
2023/07/21 00:52:46;;;;;;;;;;;21.90;61.30;;;;;;4145940;28;19931;-54
2023/07/21 00:55:31;;;;;;;;;;;21.90;61.40;;;;;;4142374;28;19932;-50
2023/07/21 00:58:15;;;;;;;;;;;21.90;61.40;;;;;;4150238;28;19935;-54
2023/07/21 01:01:02;;;;;;;;;;;21.90;61.40;;;;;;4142567;28;20363;-55
2023/07/21 01:03:46;;;;;;;;;;;21.90;61.50;;;;;;4160506;28;19936;-50
2023/07/21 01:06:30;;;;;;;;;;;21.90;61.60;;;;;;4131993;28;19940;-54
2023/07/21 01:09:13;;;;;;;;;;;21.90;61.70;;;;;;4126858;28;19931;-54
2023/07/21 01:11:54;;;;;;;;;;;21.90;61.70;;;;;;4151813;28;20000;-53
2023/07/21 01:14:39;;;;;;;;;;;21.80;61.80;;;;;;4135991;28;20074;-54
2023/07/21 01:17:21;;;;;;;;;;;21.80;61.90;;;;;;4159807;28;19935;-55
2023/07/21 01:20:05;;;;;;;;;;;21.80;61.90;;;;;;4162789;28;19932;-51
2023/07/21 01:22:51;;;;;;;;;;;21.80;62.10;;;;;;4149144;28;20735;-53
2023/07/21 01:25:34;;;;;;;;;;;21.80;62.10;;;;;;4141108;28;19932;-54
2023/07/21 01:28:17;;;;;;;;;;;21.70;62.10;;;;;;4137903;28;19932;-51
2023/07/21 01:31:03;;;;;;;;;;;21.70;62.20;;;;;;4128670;28;20027;-54
2023/07/21 01:33:49;;;;;;;;;;;21.70;62.30;;;;;;4132092;28;19944;-53
2023/07/21 01:36:35;;;;;;;;;;;21.70;62.30;;;;;;4148729;28;19936;-52
2023/07/21 01:39:17;;;;;;;;;;;21.70;62.30;;;;;;4134890;28;20019;-51
2023/07/21 01:42:00;;;;;;;;;;;21.70;62.30;;;;;;4144689;28;20392;-50
2023/07/21 01:44:44;;;;;;;;;;;21.70;62.40;;;;;;4144599;28;19958;-52
2023/07/21 01:47:26;;;;;;;;;;;21.70;62.40;;;;;;4149771;28;20394;-53
2023/07/21 01:50:13;;;;;;;;;;;21.70;63.40;;;;;;4146815;28;19978;-52
2023/07/21 01:52:56;;;;;;;;;;;21.70;62.50;;;;;;4141234;28;19978;-51
2023/07/21 01:55:43;;;;;;;;;;;21.70;62.50;;;;;;4146507;28;19932;-50
2023/07/21 01:58:26;;;;;;;;;;;21.60;62.50;;;;;;4136467;28;20395;-53
2023/07/21 02:01:09;;;;;;;;;;;21.60;62.50;;;;;;4147017;28;19937;-54
2023/07/21 02:03:51;;;;;;;;;;;21.70;62.60;;;;;;4146124;28;19936;-55
2023/07/21 02:06:34;;;;;;;;;;;21.60;62.60;;;;;;4142102;28;20395;-53
2023/07/21 02:09:19;;;;;;;;;;;21.60;62.70;;;;;;4139791;28;20044;-54
2023/07/21 02:12:01;;;;;;;;;;;21.60;62.60;;;;;;4149369;28;19986;-51
2023/07/21 02:14:56;;;;;;;;;;;21.60;62.70;;;;;;4138116;28;20011;-51
2023/07/21 02:17:38;;;;;;;;;;;21.60;62.70;;;;;;4136780;28;19936;-51
2023/07/21 02:20:24;;;;;;;;;;;21.60;63.60;;;;;;4149388;28;19932;-53
2023/07/21 02:23:05;;;;;;;;;;;21.50;62.70;;;;;;4126517;28;19932;-54
2023/07/21 02:25:50;;;;;;;;;;;21.60;62.70;;;;;;4148336;28;19936;-53
2023/07/21 02:28:31;;;;;;;;;;;21.50;62.70;;;;;;4147067;28;19933;-53
2023/07/21 02:31:14;;;;;;;;;;;21.50;62.70;;;;;;4175876;28;20706;-50
2023/07/21 02:33:57;;;;;;;;;;;21.50;62.80;;;;;;4149140;28;19983;-49
2023/07/21 02:36:39;;;;;;;;;;;21.50;62.80;;;;;;4164854;28;20446;-52
2023/07/21 02:39:27;;;;;;;;;;;21.50;63.70;;;;;;4166143;28;19935;-50
2023/07/21 02:42:08;;;;;;;;;;;21.50;62.80;;;;;;4162757;28;19950;-51
2023/07/21 02:44:50;;;;;;;;;;;21.50;62.80;;;;;;4151643;28;19976;-51
2023/07/21 02:47:33;;;;;;;;;;;21.40;62.80;;;;;;4165321;28;19932;-52
2023/07/21 02:50:17;;;;;;;;;;;21.40;62.80;;;;;;4175452;28;19939;-52
2023/07/21 02:53:01;;;;;;;;;;;21.40;62.80;;;;;;4159180;28;20395;-51
2023/07/21 02:55:42;;;;;;;;;;;21.40;62.90;;;;;;4147258;28;19932;-52
2023/07/21 02:58:26;;;;;;;;;;;21.40;62.90;;;;;;4150016;28;20613;-53
2023/07/21 03:01:12;;;;;;;;;;;21.40;62.90;;;;;;4165452;28;19931;-50
2023/07/21 03:03:58;;;;;;;;;;;21.40;62.80;;;;;;4138234;28;19979;-51
2023/07/21 03:06:40;;;;;;;;;;;21.40;62.80;;;;;;4163446;28;19932;-52
2023/07/21 03:09:23;;;;;;;;;;;21.30;62.80;;;;;;4170821;28;19957;-51
2023/07/21 03:12:04;;;;;;;;;;;21.30;62.80;;;;;;4171637;28;19975;-55
2023/07/21 03:15:10;;;;;;;;;;;21.30;62.90;;;;;;4178588;28;19997;-52
2023/07/21 03:18:12;;;;;;;;;;;21.30;62.90;;;;;;4158459;28;19935;-50
2023/07/21 03:21:16;;;;;;;;;;;21.30;63.00;;;;;;4173180;28;19973;-53
2023/07/21 03:23:58;;;;;;;;;;;21.30;63.00;;;;;;4159934;28;20034;-55
2023/07/21 03:26:41;;;;;;;;;;;21.30;63.00;;;;;;4155709;28;20406;-52
2023/07/21 03:29:23;;;;;;;;;;;21.30;63.10;;;;;;4165173;28;19974;-53
2023/07/21 03:32:07;;;;;;;;;;;21.20;63.00;;;;;;4145559;28;20011;-52
2023/07/21 03:34:51;;;;;;;;;;;21.20;63.00;;;;;;4149106;28;19940;-51
2023/07/21 03:37:35;;;;;;;;;;;21.20;63.00;;;;;;4146063;28;20307;-52
2023/07/21 03:40:18;;;;;;;;;;;21.20;64.00;;;;;;4151839;28;19932;-51
2023/07/21 03:42:59;;;;;;;;;;;21.20;63.00;;;;;;4173731;28;20013;-50
2023/07/21 03:45:43;;;;;;;;;;;21.20;63.10;;;;;;4155056;28;19936;-53
2023/07/21 03:48:26;;;;;;;;;;;21.20;63.10;;;;;;4166196;28;19936;-51
2023/07/21 03:51:09;;;;;;;;;;;21.20;63.20;;;;;;4167202;28;20419;-51
2023/07/21 03:53:58;;;;;;;;;;;21.20;63.10;;;;;;4144557;28;20300;-53
2023/07/21 03:56:40;;;;;;;;;;;21.20;63.20;;;;;;4160856;28;19989;-52
2023/07/21 03:59:26;;;;;;;;;;;21.10;63.20;;;;;;4157100;28;20057;-53
2023/07/21 04:02:10;;;;;;;;;;;21.10;63.10;;;;;;4110143;28;20022;-50
2023/07/21 04:04:53;;;;;;;;;;;21.10;63.10;;;;;;4149914;28;19932;-53
2023/07/21 04:07:34;;;;;;;;;;;21.10;63.10;;;;;;4147637;28;20088;-53
2023/07/21 04:10:22;;;;;;;;;;;21.10;63.20;;;;;;4131220;28;19975;-51
2023/07/21 04:13:05;;;;;;;;;;;21.10;63.20;;;;;;4146545;28;20292;-52
2023/07/21 04:15:50;;;;;;;;;;;21.10;63.30;;;;;;4148576;28;20284;-52
2023/07/21 04:18:32;;;;;;;;;;;21.10;63.30;;;;;;4131755;28;19932;-51
2023/07/21 04:21:16;;;;;;;;;;;21.10;63.30;;;;;;4127178;28;19932;-52
2023/07/21 04:23:58;;;;;;;;;;;21.10;63.30;;;;;;4127447;28;20382;-49
2023/07/21 04:26:41;;;;;;;;;;;21.00;63.20;;;;;;4136117;28;19936;-46
2023/07/21 04:29:25;;;;;;;;;;;21.10;63.30;;;;;;4131169;28;20486;-46
2023/07/21 04:32:19;;;;;;;;;;;21.10;64.10;;;;;;4155177;28;19933;-54
2023/07/21 04:35:03;;;;;;;;;;;21.00;63.30;;;;;;4125383;28;20062;-56
2023/07/21 04:38:08;;;;;;;;;;;21.10;63.70;;;;;;4098245;28;24277;-50
2023/07/21 04:41:36;;;;;;;;;;;21.10;63.70;;;;;;4117485;28;19932;-53
2023/07/21 04:44:29;;;;;;;;;;;21.10;63.60;;;;;;4131448;28;19932;-56
2023/07/21 04:47:26;;;;;;;;;;;21.10;63.50;;;;;;4042875;28;19977;-55
2023/07/21 04:50:32;;;;;;;;;;;21.10;63.40;;;;;;4099934;28;19940;-52
2023/07/21 04:53:15;;;;;;;;;;;21.10;63.40;;;;;;4144929;28;19936;-56
2023/07/21 04:56:01;;;;;;;;;;;21.10;63.40;;;;;;4122590;28;19932;-56
2023/07/21 04:58:50;;;;;;;;;;;21.10;63.40;;;;;;4083715;28;19949;-55
2023/07/21 05:01:34;;;;;;;;;;;21.10;64.30;;;;;;4133654;28;19990;-55
2023/07/21 05:04:21;;;;;;;;;;;21.10;63.40;;;;;;4114039;28;19956;-56
2023/07/21 05:07:27;;;;;;;;;;;21.10;63.50;;;;;;4076634;28;20380;-54
2023/07/21 05:10:43;;;;;;;;;;;21.10;63.50;;;;;;4064234;28;20312;-56
2023/07/21 05:13:37;;;;;;;;;;;21.10;63.60;;;;;;4108392;28;19932;-56
2023/07/21 05:17:10;;;;;;;;;;;21.10;63.60;;;;;;4100585;28;20376;-55
2023/07/21 05:20:13;;;;;;;;;;;21.10;63.60;;;;;;4065314;28;19937;-53
2023/07/21 05:23:21;;;;;;;;;;;21.10;63.50;;;;;;4121889;28;19947;-57
2023/07/21 05:26:37;;;;;;;;;;;21.10;63.50;;;;;;4139190;28;19943;-56
2023/07/21 05:29:41;;;;;;;;;;;21.20;63.60;;;;;;4055122;28;19931;-54
2023/07/21 05:33:09;;;;;;;;;;;21.20;63.70;;;;;;4111408;28;20494;-55
2023/07/21 05:36:04;;;;;;;;;;;21.20;63.60;;;;;;4143098;28;19990;-56
2023/07/21 05:38:48;;;;;;;;;;;21.30;63.60;;;;;;4143479;28;19936;-56
2023/07/21 05:41:30;;;;;;;;;;;21.30;63.60;;;;;;4114213;28;19996;-58
2023/07/21 05:44:15;;;;;;;;;;;21.30;63.60;;;;;;4107992;28;20001;-57
2023/07/21 05:46:58;;;;;;;;;;;21.40;64.50;;;;;;4119301;28;19938;-58
2023/07/21 05:49:48;;;;;;;;;;;21.50;63.50;;;;;;4116150;28;19936;-58
2023/07/21 05:52:37;;;;;;;;;;;21.50;63.20;;;;;;4096755;28;20004;-57
2023/07/21 05:55:22;;;;;;;;;;;21.50;63.00;;;;;;4105879;28;20084;-59
2023/07/21 05:58:08;;;;;;;;;;;21.60;63.00;;;;;;4121132;28;19939;-59
2023/07/21 06:01:01;;;;;;;;;;;21.60;63.30;;;;;;4143401;28;19950;-58
2023/07/21 06:03:56;;;;;;;;;;;21.60;63.70;;;;;;4130121;28;20307;-59
2023/07/21 06:06:46;;;;;;;;;;;21.70;63.80;;;;;;4115010;28;20386;-58
2023/07/21 06:10:10;;;;;;;;;;;21.70;63.80;;;;;;4108512;28;20025;-58
2023/07/21 06:13:11;;;;;;;;;;;21.70;63.60;;;;;;4135339;28;19932;-58
2023/07/21 06:16:22;;;;;;;;;;;21.70;63.50;;;;;;4129030;28;20016;-53
2023/07/21 06:19:21;;;;;;;;;;;21.70;63.50;;;;;;4120879;28;19931;-59
2023/07/21 06:22:10;;;;;;;;;;;21.80;63.50;;;;;;4156090;28;19939;-56
2023/07/21 06:25:08;;;;;;;;;;;21.80;63.40;;;;;;4126998;28;19986;-59
2023/07/21 06:27:57;;;;;;;;;;;21.80;63.30;;;;;;4082793;28;20541;-58
2023/07/21 06:30:45;;;;;;;;;;;21.90;63.30;;;;;;4111365;28;20457;-57
2023/07/21 06:33:58;;;;;;;;;;;21.90;63.20;;;;;;4122870;28;19941;-59
2023/07/21 06:36:59;;;;;;;;;;;21.90;63.10;;;;;;4143049;28;20509;-59
2023/07/21 06:39:57;;;;;;;;;;;22.00;62.80;;;;;;4105109;28;20343;-59
2023/07/21 06:43:09;;;;;;;;;;;22.00;62.60;;;;;;4124425;28;20417;-59
2023/07/21 06:46:21;;;;;;;;;;;22.10;62.60;;;;;;4063116;28;19984;-59
2023/07/21 06:49:16;;;;;;;;;;;22.10;62.40;;;;;;4129488;28;19941;-59
2023/07/21 06:52:15;;;;;;;;;;;22.20;62.30;;;;;;4128080;28;20380;-58
2023/07/21 06:55:00;;;;;;;;;;;22.20;62.10;;;;;;4101793;28;19931;-59
2023/07/21 06:57:58;;;;;;;;;;;22.30;61.90;;;;;;4127498;28;19932;-56
2023/07/21 07:00:52;;;;;;;;;;;22.30;61.60;;;;;;4151009;28;20457;-60
2023/07/21 07:03:43;;;;;;;;;;;22.40;61.30;;;;;;4163230;28;19973;-58
2023/07/21 07:06:29;;;;;;;;;;;22.50;60.90;;;;;;4170197;28;19954;-58
2023/07/21 07:09:14;;;;;;;;;;;22.50;60.70;;;;;;4147833;28;19983;-59
2023/07/21 07:12:00;;;;;;;;;;;22.50;60.60;;;;;;4139559;28;20087;-58
2023/07/21 07:14:50;;;;;;;;;;;22.60;60.60;;;;;;4128231;28;19932;-58
2023/07/21 07:17:35;;;;;;;;;;;22.60;60.10;;;;;;4098187;28;20394;-59
2023/07/21 07:20:20;;;;;;;;;;;22.60;59.80;;;;;;4120721;28;20417;-59
2023/07/21 07:23:09;;;;;;;;;;;22.70;59.70;;;;;;4108251;28;20292;-49
2023/07/21 07:25:59;;;;;;;;;;;22.70;59.50;;;;;;4091872;28;20078;-48
2023/07/21 07:28:46;;;;;;;;;;;22.70;59.50;;;;;;4091151;28;19979;-52
2023/07/21 07:31:33;;;;;;;;;;;22.70;59.40;;;;;;4113106;28;19935;-47
2023/07/21 07:34:30;;;;;;;;;;;22.80;59.30;;;;;;4130248;28;19931;-49
2023/07/21 07:37:35;;;;;;;;;;;22.80;59.20;;;;;;4145500;28;19939;-47
2023/07/21 07:40:25;;;;;;;;;;;22.80;59.20;;;;;;4143052;28;19931;-49
2023/07/21 07:43:09;;;;;;;;;;;22.80;59.00;;;;;;4156932;28;20055;-50
2023/07/21 07:45:50;;;;;;;;;;;22.80;58.90;;;;;;4118070;28;20066;-51
2023/07/21 07:48:37;;;;;;;;;;;22.90;58.80;;;;;;4128684;28;20300;-52
2023/07/21 07:51:21;;;;;;;;;;;22.90;58.70;;;;;;4145818;28;19935;-51
2023/07/21 07:54:07;;;;;;;;;;;22.90;58.50;;;;;;4160005;28;19979;-51
2023/07/21 07:56:59;;;;;;;;;;;22.90;59.10;;;;;;4161688;28;19935;-48
2023/07/21 07:59:42;;;;;;;;;;;22.90;58.40;;;;;;4164787;28;20841;-50
2023/07/21 08:02:25;;;;;;;;;;;23.00;58.10;;;;;;4127361;28;19964;-58
2023/07/21 08:05:13;;;;;;;;;;;22.90;57.70;;;;;;4105467;28;19935;-53
2023/07/21 08:08:12;;;;;;;;;;;22.90;57.50;;;;;;4106686;28;19933;-49
2023/07/21 08:10:55;;;;;;;;;;;22.80;57.40;;;;;;4154964;28;19932;-49
2023/07/21 08:13:40;;;;;;;;;;;22.90;57.50;;;;;;4154449;28;19932;-50
2023/07/21 08:16:25;;;;;;;;;;;22.80;57.40;;;;;;4154250;28;20041;-49
2023/07/21 08:19:08;;;;;;;;;;;22.80;57.30;;;;;;4135662;28;20032;-51
2023/07/21 08:21:50;;;;;;;;;;;22.80;57.40;;;;;;4140878;28;19947;-47
2023/07/21 08:24:37;;;;;;;;;;;22.80;57.40;;;;;;4156321;28;20302;-51
2023/07/21 08:27:20;;;;;;;;;;;22.70;58.00;;;;;;4161181;28;20299;-50
2023/07/21 08:30:04;;;;;;;;;;;22.70;57.40;;;;;;4124548;28;20399;-59
2023/07/21 08:32:46;;;;;;;;;;;22.70;57.50;;;;;;4158574;28;20065;-60
2023/07/21 08:35:29;;;;;;;;;;;22.70;57.30;;;;;;4147306;28;20415;-59
2023/07/21 08:38:11;;;;;;;;;;;22.70;57.10;;;;;;4141780;28;20102;-60
2023/07/21 08:41:04;;;;;;;;;;;22.80;57.00;;;;;;4167007;28;19978;-58
2023/07/21 08:43:48;;;;;;;;;;;22.80;57.90;;;;;;4147433;28;19947;-59
2023/07/21 08:46:34;;;;;;;;;;;22.70;57.00;;;;;;4162282;28;20396;-59
2023/07/21 08:49:19;;;;;;;;;;;22.70;56.90;;;;;;4145542;28;19935;-59
2023/07/21 08:52:01;;;;;;;;;;;22.70;56.70;;;;;;4099307;28;19948;-58
2023/07/21 08:54:43;;;;;;;;;;;22.80;56.50;;;;;;4147092;28;19978;-59
2023/07/21 08:57:39;;;;;;;;;;;22.80;56.30;;;;;;4125011;28;19931;-58
2023/07/21 09:00:31;;;;;;;;;;;22.80;56.40;;;;;;4153186;28;19932;-58
2023/07/21 09:03:27;;;;;;;;;;;22.80;56.40;;;;;;4122881;28;20020;-59
2023/07/21 09:06:12;;;;;;;;;;;22.90;56.40;;;;;;4151790;28;19935;-58
2023/07/21 09:08:54;;;;;;;;;;;22.90;56.20;;;;;;4156547;28;20279;-59
2023/07/21 09:11:37;;;;;;;;;;;22.90;56.00;;;;;;4137204;28;19935;-56
2023/07/21 09:14:30;;;;;;;;;;;22.90;56.10;;;;;;4152786;28;20026;-59
2023/07/21 09:17:12;;;;;;;;;;;22.90;56.20;;;;;;4171747;28;20413;-60
2023/07/21 09:19:58;;;;;;;;;;;23.00;56.10;;;;;;4155713;28;19946;-61
2023/07/21 09:22:47;;;;;;;;;;;22.90;56.00;;;;;;4151038;28;19934;-59
2023/07/21 09:25:30;;;;;;;;;;;23.00;55.80;;;;;;4134193;28;20050;-59
2023/07/21 09:28:11;;;;;;;;;;;23.00;56.10;;;;;;4149638;28;20457;-60
2023/07/21 09:30:54;;;;;;;;;;;23.00;56.10;;;;;;4160612;28;20421;-60
2023/07/21 09:33:40;;;;;;;;;;;23.00;56.20;;;;;;4148210;28;20074;-60
2023/07/21 09:36:27;;;;;;;;;;;23.00;56.20;;;;;;4148468;28;20349;-61
2023/07/21 09:39:18;;;;;;;;;;;23.00;57.00;;;;;;4153386;28;19935;-61
2023/07/21 09:42:09;;;;;;;;;;;23.00;56.20;;;;;;4121721;28;19962;-58
2023/07/21 09:44:56;;;;;;;;;;;23.00;56.80;;;;;;4101376;28;19948;-59
2023/07/21 09:47:56;;;;;;;;;;;23.10;56.20;;;;;;4103699;28;19936;-61
2023/07/21 09:50:42;;;;;;;;;;;23.10;56.20;;;;;;4122445;28;20026;-62
2023/07/21 09:53:38;;;;;;;;;;;23.10;56.20;;;;;;4131821;28;19932;-60
2023/07/21 09:56:33;;;;;;;;;;;23.10;56.10;;;;;;4123254;28;19944;-60
2023/07/21 09:59:16;;;;;;;;;;;23.10;56.00;;;;;;4149098;28;19984;-62
2023/07/21 10:01:57;;;;;;;;;;;23.10;56.10;;;;;;4123368;28;20299;-62
2023/07/21 10:04:41;;;;;;;;;;;23.10;56.20;;;;;;4135072;28;20066;-61
2023/07/21 10:07:32;;;;;;;;;;;23.10;56.10;;;;;;4091784;28;20060;-61
2023/07/21 10:10:14;;;;;;;;;;;23.10;56.00;;;;;;4111200;28;19933;-61
2023/07/21 10:12:59;;;;;;;;;;;23.10;56.00;;;;;;4069540;28;20016;-57
2023/07/21 10:15:46;;;;;;;;;;;23.10;56.00;;;;;;4144677;28;19933;-60
2023/07/21 10:18:31;;;;;;;;;;;23.20;55.80;;;;;;4124360;28;21447;-61
2023/07/21 10:21:16;;;;;;;;;;;23.20;55.80;;;;;;4108614;28;20083;-60
2023/07/21 10:24:05;;;;;;;;;;;23.20;55.80;;;;;;4140070;28;19931;-61
2023/07/21 10:26:53;;;;;;;;;;;23.20;56.50;;;;;;4138296;28;19979;-60
2023/07/21 10:29:40;;;;;;;;;;;23.20;55.80;;;;;;4127471;28;19935;-60
2023/07/21 10:32:29;;;;;;;;;;;23.20;55.80;;;;;;4140873;28;20326;-60
2023/07/21 10:35:26;;;;;;;;;;;23.30;56.70;;;;;;4139750;28;19936;-62
2023/07/21 10:38:29;;;;;;;;;;;23.30;55.70;;;;;;4125959;28;20439;-60
2023/07/21 10:41:16;;;;;;;;;;;23.30;56.50;;;;;;4169453;28;20295;-60
2023/07/21 10:44:11;;;;;;;;;;;23.30;56.50;;;;;;4147330;28;20417;-62
2023/07/21 10:47:12;;;;;;;;;;;23.40;55.80;;;;;;4164750;28;20464;-60
2023/07/21 10:50:12;;;;;;;;;;;23.40;55.70;;;;;;4180870;28;20070;-62
2023/07/21 10:52:53;;;;;;;;;;;23.40;55.50;;;;;;4124616;28;19971;-61
2023/07/21 10:55:37;;;;;;;;;;;23.40;55.40;;;;;;4167999;28;19932;-61
2023/07/21 10:58:23;;;;;;;;;;;23.40;56.10;;;;;;4135527;28;19935;-61
2023/07/21 11:01:12;;;;;;;;;;;23.40;55.40;;;;;;4166270;28;20012;-50
2023/07/21 11:03:59;;;;;;;;;;;23.40;55.40;;;;;;4127871;28;19936;-51
2023/07/21 11:06:42;;;;;;;;;;;23.40;55.40;;;;;;4135323;28;20453;-51
2023/07/21 11:09:33;;;;;;;;;;;23.40;55.50;;;;;;4105114;28;20438;-49
2023/07/21 11:12:18;;;;;;;;;;;23.40;55.30;;;;;;4103689;28;20435;-60
2023/07/21 11:15:04;;;;;;;;;;;23.40;55.40;;;;;;4073949;28;20391;-61
2023/07/21 11:17:46;;;;;;;;;;;23.40;55.30;;;;;;4113706;28;19943;-60
2023/07/21 11:20:30;;;;;;;;;;;23.40;54.90;;;;;;4087236;28;19987;-60
2023/07/21 11:23:17;;;;;;;;;;;23.40;54.80;;;;;;4140949;28;20485;-60
2023/07/21 11:26:10;;;;;;;;;;;23.40;54.50;;;;;;4139286;28;20006;-62
2023/07/21 11:28:58;;;;;;;;;;;23.40;54.70;;;;;;4118201;28;20792;-61
2023/07/21 11:31:46;;;;;;;;;;;23.40;55.30;;;;;;4144981;28;19936;-49
2023/07/21 11:34:34;;;;;;;;;;;23.40;54.70;;;;;;4126669;28;19963;-51
2023/07/21 11:37:22;;;;;;;;;;;23.40;54.60;;;;;;4095992;28;20018;-60
2023/07/21 11:40:13;;;;;;;;;;;23.40;54.70;;;;;;4139738;28;19932;-61
2023/07/21 11:43:02;;;;;;;;;;;23.50;55.50;;;;;;4124600;28;19937;-61
2023/07/21 11:45:51;;;;;;;;;;;23.40;54.70;;;;;;4143476;28;19931;-60
2023/07/21 11:48:42;;;;;;;;;;;23.50;54.70;;;;;;4087442;28;19938;-61
2023/07/21 11:51:43;;;;;;;;;;;23.50;54.70;;;;;;4146324;28;20763;-62
2023/07/21 11:54:47;;;;;;;;;;;23.60;54.80;;;;;;4149336;28;19935;-60
2023/07/21 11:57:33;;;;;;;;;;;23.60;54.40;;;;;;4145573;28;20017;-62
2023/07/21 12:00:17;;;;;;;;;;;23.60;54.10;;;;;;4120788;28;20055;-62
2023/07/21 12:03:02;;;;;;;;;;;23.60;54.00;;;;;;4167747;28;20271;-61
2023/07/21 12:05:47;;;;;;;;;;;23.70;54.00;;;;;;4168915;28;20409;-61
2023/07/21 12:08:35;;;;;;;;;;;23.70;53.90;;;;;;4162665;28;19959;-55
2023/07/21 12:11:42;;;;;;;;;;;23.70;53.70;;;;;;4133939;28;19993;-61
2023/07/21 12:14:27;;;;;;;;;;;23.80;53.40;;;;;;4157975;28;19932;-62
2023/07/21 12:17:14;;;;;;;;;;;23.80;53.60;;;;;;4150569;28;20082;-59
2023/07/21 12:20:22;;;;;;;;;;;23.80;53.80;;;;;;4158091;28;19947;-57
2023/07/21 12:23:11;;;;;;;;;;;23.80;53.70;;;;;;4156258;28;19933;-60
2023/07/21 12:26:16;;;;;;;;;;;23.80;54.10;;;;;;4137962;28;20030;-62
2023/07/21 12:29:21;;;;;;;;;;;23.80;54.10;;;;;;4147055;28;19935;-61
2023/07/21 12:32:26;;;;;;;;;;;23.80;53.80;;;;;;4102009;28;19932;-62
2023/07/21 12:35:15;;;;;;;;;;;23.70;54.70;;;;;;4166243;28;19932;-62
2023/07/21 12:37:57;;;;;;;;;;;23.70;54.50;;;;;;4142434;28;20048;-60
2023/07/21 12:40:43;;;;;;;;;;;23.70;54.50;;;;;;4131620;28;19932;-61
2023/07/21 12:43:28;;;;;;;;;;;23.60;54.60;;;;;;4140209;28;20110;-61
2023/07/21 12:46:14;;;;;;;;;;;23.60;54.90;;;;;;4160730;28;19931;-61
2023/07/21 12:49:00;;;;;;;;;;;23.60;55.20;;;;;;4148066;28;19974;-59
2023/07/21 12:51:43;;;;;;;;;;;23.50;55.40;;;;;;4150695;28;19974;-61
2023/07/21 12:54:28;;;;;;;;;;;23.50;55.60;;;;;;4133980;28;19934;-60
2023/07/21 12:57:12;;;;;;;;;;;23.40;55.80;;;;;;4134534;28;19982;-62
2023/07/21 12:59:54;;;;;;;;;;;23.40;56.20;;;;;;4129066;28;19936;-61
2023/07/21 13:02:40;;;;;;;;;;;23.30;56.30;;;;;;4122898;28;20035;-63
2023/07/21 13:05:28;;;;;;;;;;;23.30;56.60;;;;;;4103904;28;20070;-58
2023/07/21 13:08:26;;;;;;;;;;;23.20;56.80;;;;;;4137717;28;19940;-57
2023/07/21 13:11:14;;;;;;;;;;;23.20;57.40;;;;;;4154453;28;20081;-58
2023/07/21 13:14:02;;;;;;;;;;;23.10;57.60;;;;;;4153262;28;20063;-59
2023/07/21 13:16:45;;;;;;;;;;;23.10;58.00;;;;;;4116920;28;20049;-61
2023/07/21 13:19:27;;;;;;;;;;;23.00;58.20;;;;;;4152577;28;19935;-60
2023/07/21 13:22:10;;;;;;;;;;;23.00;58.70;;;;;;4122404;28;19932;-59
2023/07/21 13:24:53;;;;;;;;;;;23.00;59.00;;;;;;4146375;28;20412;-57
2023/07/21 13:27:38;;;;;;;;;;;23.00;59.40;;;;;;4095845;28;19932;-59
2023/07/21 13:30:22;;;;;;;;;;;22.90;59.50;;;;;;4143685;28;20299;-60
2023/07/21 13:33:09;;;;;;;;;;;22.80;59.70;;;;;;4134774;28;19931;-57
2023/07/21 13:35:54;;;;;;;;;;;22.80;59.70;;;;;;4121928;28;19948;-59
2023/07/21 13:38:38;;;;;;;;;;;22.80;59.90;;;;;;4091740;28;20414;-59
2023/07/21 13:41:22;;;;;;;;;;;22.70;60.10;;;;;;4099637;28;19936;-59
2023/07/21 13:44:09;;;;;;;;;;;22.70;60.30;;;;;;4096004;28;19963;-56
2023/07/21 13:47:00;;;;;;;;;;;22.70;60.50;;;;;;4144957;28;19936;-60
2023/07/21 13:49:47;;;;;;;;;;;22.70;60.60;;;;;;4109730;28;19931;-60
2023/07/21 13:52:38;;;;;;;;;;;22.70;60.80;;;;;;4138208;28;19932;-58
2023/07/21 13:55:22;;;;;;;;;;;22.70;60.90;;;;;;4104683;28;19936;-59
2023/07/21 13:58:05;;;;;;;;;;;22.70;61.10;;;;;;4120880;28;19952;-59
2023/07/21 14:00:48;;;;;;;;;;;22.70;61.30;;;;;;4125604;28;20057;-61
2023/07/21 14:03:33;;;;;;;;;;;22.60;61.30;;;;;;4104015;28;19971;-61
2023/07/21 14:06:19;;;;;;;;;;;22.60;61.50;;;;;;4146744;28;20051;-60
2023/07/21 14:09:14;;;;;;;;;;;22.60;61.60;;;;;;4106595;28;20439;-52
2023/07/21 14:12:08;;;;;;;;;;;22.60;62.60;;;;;;4122231;28;19940;-62
2023/07/21 14:14:53;;;;;;;;;;;22.60;61.80;;;;;;4102715;28;20391;-51
2023/07/21 14:17:34;;;;;;;;;;;22.60;62.00;;;;;;4143204;28;19932;-53
2023/07/21 14:20:25;;;;;;;;;;;22.60;62.00;;;;;;4102255;28;20873;-49
2023/07/21 14:23:31;;;;;;;;;;;22.60;62.20;;;;;;4147208;28;19985;-61
2023/07/21 14:26:22;;;;;;;;;;;22.60;62.30;;;;;;4136585;28;19932;-63
2023/07/21 14:29:10;;;;;;;;;;;22.60;62.20;;;;;;4089992;28;19932;-61
2023/07/21 14:32:08;;;;;;;;;;;22.60;62.40;;;;;;4098008;28;19936;-60
2023/07/21 14:34:56;;;;;;;;;;;22.60;62.40;;;;;;4122421;28;19937;-60
2023/07/21 14:37:56;;;;;;;;;;;22.60;62.60;;;;;;4106511;28;19975;-61
2023/07/21 14:40:38;;;;;;;;;;;22.60;62.80;;;;;;4126520;28;19936;-53
2023/07/21 14:43:22;;;;;;;;;;;22.50;62.80;;;;;;4139255;28;19951;-51
2023/07/21 14:46:04;;;;;;;;;;;22.50;63.00;;;;;;4103506;28;19932;-61
2023/07/21 14:48:47;;;;;;;;;;;22.50;63.00;;;;;;4100200;28;20025;-59
2023/07/21 14:51:32;;;;;;;;;;;22.50;63.10;;;;;;4142619;28;19939;-61
2023/07/21 14:54:17;;;;;;;;;;;22.50;63.10;;;;;;4134456;28;19992;-61
2023/07/21 14:57:13;;;;;;;;;;;22.50;63.40;;;;;;4089107;28;19975;-60
2023/07/21 15:00:04;;;;;;;;;;;22.50;63.40;;;;;;4106696;28;20088;-59
2023/07/21 15:02:48;;;;;;;;;;;22.50;63.40;;;;;;4123808;28;20059;-58
2023/07/21 15:05:29;;;;;;;;;;;22.50;63.40;;;;;;4098073;28;20385;-60
2023/07/21 15:08:15;;;;;;;;;;;22.50;63.50;;;;;;4118726;28;19975;-59
2023/07/21 15:10:59;;;;;;;;;;;22.50;63.50;;;;;;4163390;28;20338;-60
2023/07/21 15:13:40;;;;;;;;;;;22.50;63.60;;;;;;4165725;28;20355;-61
2023/07/21 15:16:26;;;;;;;;;;;22.50;63.70;;;;;;4123127;28;19971;-60
2023/07/21 15:19:13;;;;;;;;;;;22.50;63.70;;;;;;4107539;28;19975;-58
2023/07/21 15:21:56;;;;;;;;;;;22.50;63.80;;;;;;4137053;28;19978;-60
2023/07/21 15:24:40;;;;;;;;;;;22.50;63.80;;;;;;4116664;28;19936;-57
2023/07/21 15:27:35;;;;;;;;;;;22.40;64.10;;;;;;4137166;28;19936;-56
2023/07/21 15:30:17;;;;;;;;;;;22.40;64.20;;;;;;4136728;28;19990;-56
2023/07/21 15:32:59;;;;;;;;;;;22.50;65.30;;;;;;4130827;28;19936;-49
2023/07/21 15:35:44;;;;;;;;;;;22.40;64.60;;;;;;4150978;28;20063;-49
2023/07/21 15:38:25;;;;;;;;;;;22.40;64.80;;;;;;4138020;28;19975;-49
2023/07/21 15:41:07;;;;;;;;;;;22.40;65.00;;;;;;4138200;28;19933;-52
2023/07/21 15:43:50;;;;;;;;;;;22.40;65.10;;;;;;4151923;28;19998;-51
2023/07/21 15:46:35;;;;;;;;;;;22.40;65.00;;;;;;4147249;28;19936;-52
2023/07/21 15:49:21;;;;;;;;;;;22.30;65.00;;;;;;4139886;28;20059;-50
2023/07/21 15:52:03;;;;;;;;;;;22.40;65.00;;;;;;4132274;28;19933;-57
2023/07/21 15:54:44;;;;;;;;;;;22.40;65.00;;;;;;4144536;28;19932;-58
2023/07/21 15:57:27;;;;;;;;;;;22.40;65.00;;;;;;4131399;28;20411;-58
2023/07/21 16:00:14;;;;;;;;;;;22.40;65.30;;;;;;4151261;28;19976;-58
2023/07/21 16:02:59;;;;;;;;;;;22.40;65.00;;;;;;4147223;28;19978;-58
2023/07/21 16:05:41;;;;;;;;;;;22.40;65.00;;;;;;4128651;28;19960;-58
2023/07/21 16:08:24;;;;;;;;;;;22.40;65.00;;;;;;4154548;28;19982;-57
2023/07/21 16:11:10;;;;;;;;;;;22.40;65.10;;;;;;4164714;28;20025;-58
2023/07/21 16:13:51;;;;;;;;;;;22.40;65.00;;;;;;4150856;28;19998;-58
2023/07/21 16:16:37;;;;;;;;;;;22.40;65.00;;;;;;4140394;28;19940;-58